Time;durP1;ratioP1;P1;durP2;ratioP2;P2;SDS_P1;SDS_P2;PMS_P1;PMS_P2;Temp;Humidity;BMP_temperature;BMP_pressure;BME280_temperature;BME280_humidity;BME280_pressure;Samples;Min_cycle;Max_cycle;Signal;HPM_P1;HPM_P2
2023/08/10 00:01:32;;;;;;;;;;;;;;;18.05;50.33;102026.81;4824601;29;124184;-79
2023/08/10 00:03:59;;;;;;;;;;;;;;;18.06;50.36;102025.88;4823259;29;124699;-79
2023/08/10 00:06:26;;;;;;;;;;;;;;;18.07;50.44;102019.56;4843316;29;114384;-78
2023/08/10 00:08:53;;;;;;;;;;;;;;;18.08;50.45;102015.94;4832894;29;114452;-78
2023/08/10 00:11:19;;;;;;;;;;;;;;;18.09;50.42;102017.66;4844999;29;124090;-78
2023/08/10 00:13:46;;;;;;;;;;;;;;;18.11;50.51;102025.59;4835976;29;122661;-79
2023/08/10 00:16:13;;;;;;;;;;;;;;;18.13;50.56;102022.84;4828251;28;115030;-79
2023/08/10 00:18:40;;;;;;;;;;;;;;;18.14;50.50;102027.25;4831383;29;115114;-78
2023/08/10 00:21:07;;;;;;;;;;;;;;;18.16;50.55;102025.31;4828151;29;123993;-77
2023/08/10 00:23:34;;;;;;;;;;;;;;;18.18;50.62;102028.81;4833038;29;123537;-81
2023/08/10 00:26:01;;;;;;;;;;;;;;;18.18;50.47;102031.50;4827593;29;114678;-79
2023/08/10 00:28:28;;;;;;;;;;;;;;;18.20;50.50;102029.59;4830559;29;113884;-79
2023/08/10 00:30:55;;;;;;;;;;;;;;;18.19;50.58;102033.19;4818207;29;123120;-79
2023/08/10 00:33:24;;;;;;;;;;;;;;;18.18;50.26;102032.34;4835808;29;123524;-79
2023/08/10 00:36:03;;;;;;;;;;;;;;;18.17;50.59;102035.13;4819846;29;113975;-78
2023/08/10 00:38:31;;;;;;;;;;;;;;;18.17;50.46;102021.72;4849071;29;113703;-79
2023/08/10 00:40:57;;;;;;;;;;;;;;;18.17;50.54;102029.75;4819200;29;123205;-79
2023/08/10 00:43:24;;;;;;;;;;;;;;;18.17;50.48;102029.75;4813343;29;125390;-79
2023/08/10 00:45:52;;;;;;;;;;;;;;;18.17;50.70;102030.59;4826977;29;114296;-79
2023/08/10 00:48:20;;;;;;;;;;;;;;;18.18;50.70;102026.13;4809398;29;113591;-79
2023/08/10 00:50:48;;;;;;;;;;;;;;;18.20;50.69;102032.25;4849807;29;122350;-79
2023/08/10 00:53:16;;;;;;;;;;;;;;;18.19;50.66;102027.84;4831033;29;123070;-79
2023/08/10 00:55:43;;;;;;;;;;;;;;;18.20;50.54;102021.53;4826035;29;114239;-79
2023/08/10 00:58:11;;;;;;;;;;;;;;;18.22;50.61;102022.31;4832843;29;112811;-79
2023/08/10 01:00:38;;;;;;;;;;;;;;;18.25;50.76;102024.78;4846938;29;123781;-79
2023/08/10 01:03:05;;;;;;;;;;;;;;;18.26;50.75;102029.22;4832461;29;123547;-80
2023/08/10 01:05:34;;;;;;;;;;;;;;;18.28;50.68;102038.03;4828532;29;114334;-79
2023/08/10 01:08:08;;;;;;;;;;;;;;;18.31;50.82;102031.63;4824784;29;114947;-79
2023/08/10 01:10:42;;;;;;;;;;;;;;;18.32;50.73;102034.22;4849215;29;124368;-79
2023/08/10 01:13:08;;;;;;;;;;;;;;;18.34;50.74;102042.19;4824165;29;124325;-79
2023/08/10 01:15:53;;;;;;;;;;;;;;;18.34;50.65;102032.31;4850313;28;113976;-79
2023/08/10 01:18:25;;;;;;;;;;;;;;;18.37;50.70;102036.66;4827571;29;114187;-79
2023/08/10 01:20:53;;;;;;;;;;;;;;;18.37;50.68;102032.13;4833642;29;123369;-79
2023/08/10 01:23:40;;;;;;;;;;;;;;;18.38;50.79;102022.25;4832398;29;122885;-79
2023/08/10 01:26:09;;;;;;;;;;;;;;;18.39;50.54;102035.59;4849611;29;114184;-79
2023/08/10 01:28:37;;;;;;;;;;;;;;;18.38;50.79;102033.84;4834413;28;113653;-80
2023/08/10 01:31:04;;;;;;;;;;;;;;;18.40;50.86;102031.97;4844510;29;123157;-79
2023/08/10 01:33:33;;;;;;;;;;;;;;;18.42;50.77;102030.06;4829528;29;124962;-79
2023/08/10 01:35:59;;;;;;;;;;;;;;;18.43;50.79;102037.13;4815452;29;113628;-79
2023/08/10 01:38:27;;;;;;;;;;;;;;;18.44;50.80;102036.19;4843664;29;113776;-79
2023/08/10 01:40:53;;;;;;;;;;;;;;;18.46;50.67;102045.00;4830412;29;124156;-79
2023/08/10 01:43:20;;;;;;;;;;;;;;;18.47;50.78;102041.34;4828106;29;123855;-80
2023/08/10 01:45:49;;;;;;;;;;;;;;;18.49;50.71;102044.81;4849305;28;114117;-79
2023/08/10 01:48:23;;;;;;;;;;;;;;;18.50;50.84;102043.00;4824327;29;115439;-79
2023/08/10 01:50:52;;;;;;;;;;;;;;;18.51;50.83;102041.19;4826671;29;125226;-79
2023/08/10 01:53:25;;;;;;;;;;;;;;;18.51;50.76;102044.72;4826550;29;122136;-80
2023/08/10 01:55:52;;;;;;;;;;;;;;;18.53;50.88;102047.31;4828685;29;115719;-79
2023/08/10 01:58:20;;;;;;;;;;;;;;;18.54;51.03;102049.06;4830811;29;113878;-79
2023/08/10 02:00:47;;;;;;;;;;;;;;;18.56;50.86;102047.16;4825618;29;124473;-80
2023/08/10 02:03:14;;;;;;;;;;;;;;;18.56;50.87;102041.78;4830810;29;124208;-79
2023/08/10 02:05:41;;;;;;;;;;;;;;;18.57;50.71;102044.38;4831422;29;113815;-79
2023/08/10 02:08:08;;;;;;;;;;;;;;;18.58;50.92;102042.56;4830446;29;113470;-79
2023/08/10 02:10:35;;;;;;;;;;;;;;;18.58;50.74;102055.97;4830091;29;124299;-79
2023/08/10 02:13:02;;;;;;;;;;;;;;;18.60;50.92;102043.31;4829203;29;124222;-79
2023/08/10 02:15:29;;;;;;;;;;;;;;;18.61;50.92;102045.03;4842067;29;114283;-79
2023/08/10 02:17:56;;;;;;;;;;;;;;;18.62;50.85;102046.78;4828167;29;113442;-79
2023/08/10 02:20:23;;;;;;;;;;;;;;;18.63;50.93;102046.69;4833533;28;123899;-79
2023/08/10 02:22:52;;;;;;;;;;;;;;;18.65;50.76;102041.22;4831468;29;123840;-77
2023/08/10 02:25:19;;;;;;;;;;;;;;;18.66;50.83;102045.63;4830961;29;114025;-77
2023/08/10 02:27:47;;;;;;;;;;;;;;;18.64;50.86;102044.84;4833503;29;114194;-77
2023/08/10 02:30:15;;;;;;;;;;;;;;;18.62;50.61;102041.41;4817154;29;123864;-77
2023/08/10 02:32:42;;;;;;;;;;;;;;;18.61;50.81;102034.28;4828680;29;126051;-77
2023/08/10 02:35:10;;;;;;;;;;;;;;;18.58;50.86;102029.13;4830812;29;115277;-77
2023/08/10 02:37:37;;;;;;;;;;;;;;;18.59;50.91;102037.09;4836655;29;115815;-77
2023/08/10 02:40:04;;;;;;;;;;;;;;;18.61;50.83;102034.28;4830090;29;123533;-77
2023/08/10 02:42:31;;;;;;;;;;;;;;;18.60;51.02;102036.13;4826796;29;124146;-77
2023/08/10 02:44:58;;;;;;;;;;;;;;;18.61;51.04;102042.34;4846019;29;114955;-77
2023/08/10 02:47:25;;;;;;;;;;;;;;;18.63;51.00;102048.50;4846806;29;113924;-77
2023/08/10 02:49:52;;;;;;;;;;;;;;;18.63;50.92;102051.19;4836873;29;123968;-77
2023/08/10 02:52:19;;;;;;;;;;;;;;;18.64;51.01;102050.22;4831797;29;123297;-77
2023/08/10 02:54:46;;;;;;;;;;;;;;;18.66;51.15;102053.69;4851586;29;114916;-77
2023/08/10 02:57:14;;;;;;;;;;;;;;;18.66;50.98;102059.03;4827160;29;112612;-76
2023/08/10 02:59:41;;;;;;;;;;;;;;;18.66;50.94;102059.91;4826620;29;124729;-77
2023/08/10 03:02:08;;;;;;;;;;;;;;;18.66;51.01;102061.72;4833197;29;122953;-77
2023/08/10 03:04:35;;;;;;;;;;;;;;;18.67;51.02;102055.41;4827420;29;113505;-77
2023/08/10 03:07:02;;;;;;;;;;;;;;;18.66;50.80;102049.16;4834812;29;113975;-77
2023/08/10 03:09:29;;;;;;;;;;;;;;;18.66;50.98;102049.16;4831584;29;123371;-77
2023/08/10 03:11:56;;;;;;;;;;;;;;;18.65;50.96;102060.00;4847150;29;123312;-77
2023/08/10 03:14:24;;;;;;;;;;;;;;;18.64;50.99;102055.59;4847296;29;114080;-77
2023/08/10 03:16:52;;;;;;;;;;;;;;;18.60;51.13;102060.28;4852338;28;115611;-77
2023/08/10 03:19:19;;;;;;;;;;;;;;;18.58;51.03;102061.34;4850978;29;123594;-77
2023/08/10 03:21:49;;;;;;;;;;;;;;;18.55;50.93;102056.13;4821030;29;125263;-77
2023/08/10 03:24:16;;;;;;;;;;;;;;;18.53;50.90;102063.41;4822994;29;114776;-77
2023/08/10 03:26:43;;;;;;;;;;;;;;;18.51;51.16;102060.81;4848249;29;114061;-77
2023/08/10 03:29:11;;;;;;;;;;;;;;;18.50;51.08;102059.09;4849156;29;123549;-77
2023/08/10 03:31:38;;;;;;;;;;;;;;;18.48;50.87;102061.88;4835683;29;124094;-77
2023/08/10 03:34:08;;;;;;;;;;;;;;;18.46;51.01;102063.78;4817798;29;114946;-77
2023/08/10 03:36:35;;;;;;;;;;;;;;;18.43;51.15;102069.31;4845842;29;115231;-77
2023/08/10 03:39:02;;;;;;;;;;;;;;;18.41;51.13;102065.88;4849845;29;123436;-77
2023/08/10 03:41:29;;;;;;;;;;;;;;;18.39;51.03;102062.41;4831148;29;124535;-77
2023/08/10 03:43:56;;;;;;;;;;;;;;;18.38;51.19;102065.19;4833367;29;113671;-77
2023/08/10 03:46:23;;;;;;;;;;;;;;;18.37;51.20;102058.97;4834323;29;113247;-77
2023/08/10 03:48:50;;;;;;;;;;;;;;;18.36;51.12;102062.56;4851170;28;122647;-77
2023/08/10 03:51:17;;;;;;;;;;;;;;;18.36;51.29;102061.72;4834008;29;123234;-77
2023/08/10 03:53:44;;;;;;;;;;;;;;;18.35;51.30;102076.97;4849220;28;114035;-77
2023/08/10 03:56:11;;;;;;;;;;;;;;;18.36;51.41;102076.00;4832420;29;114005;-77
2023/08/10 03:58:38;;;;;;;;;;;;;;;18.36;51.24;102078.66;4816829;29;123757;-76
2023/08/10 04:01:07;;;;;;;;;;;;;;;18.36;51.40;102078.66;4829171;29;123933;-77
2023/08/10 04:03:34;;;;;;;;;;;;;;;18.37;51.25;102079.56;4834937;29;113878;-77
2023/08/10 04:06:01;;;;;;;;;;;;;;;18.37;51.46;102075.06;4848099;29;112940;-77
2023/08/10 04:08:28;;;;;;;;;;;;;;;18.37;51.35;102075.06;4823188;29;124480;-77
2023/08/10 04:10:55;;;;;;;;;;;;;;;18.39;51.45;102080.34;4834450;29;123380;-77
2023/08/10 04:13:22;;;;;;;;;;;;;;;18.38;51.32;102079.44;4825904;29;114747;-77
2023/08/10 04:15:50;;;;;;;;;;;;;;;18.37;51.46;102075.06;4830150;29;113630;-78
2023/08/10 04:18:17;;;;;;;;;;;;;;;18.37;51.44;102077.72;4850604;29;123531;-76
2023/08/10 04:20:44;;;;;;;;;;;;;;;18.38;51.35;102092.00;4849339;29;124127;-77
2023/08/10 04:23:11;;;;;;;;;;;;;;;18.36;51.27;102100.13;4834753;29;115366;-77
2023/08/10 04:25:38;;;;;;;;;;;;;;;18.34;51.34;102099.34;4833152;29;113917;-77
2023/08/10 04:28:05;;;;;;;;;;;;;;;18.33;51.40;102097.66;4833700;29;124272;-77
2023/08/10 04:30:32;;;;;;;;;;;;;;;18.31;51.34;102104.91;4821887;29;123604;-77
2023/08/10 04:32:59;;;;;;;;;;;;;;;18.30;51.44;102089.75;4828351;29;115296;-77
2023/08/10 04:35:26;;;;;;;;;;;;;;;18.29;51.39;102085.38;4830543;29;114140;-77
2023/08/10 04:37:53;;;;;;;;;;;;;;;18.28;51.54;102087.16;4836011;29;124098;-76
2023/08/10 04:40:20;;;;;;;;;;;;;;;18.29;51.60;102088.06;4830460;29;124225;-77
2023/08/10 04:42:48;;;;;;;;;;;;;;;18.29;51.57;102088.06;4835918;29;114378;-77
2023/08/10 04:45:15;;;;;;;;;;;;;;;18.30;51.38;102084.41;4830205;29;112995;-77
2023/08/10 04:47:42;;;;;;;;;;;;;;;18.30;51.39;102084.41;4830693;29;124653;-77
2023/08/10 04:50:09;;;;;;;;;;;;;;;18.30;51.83;102089.75;4833120;29;122045;-77
2023/08/10 04:52:36;;;;;;;;;;;;;;;18.31;51.49;102091.50;4841487;29;113509;-77
2023/08/10 04:55:05;;;;;;;;;;;;;;;18.31;51.65;102087.94;4815635;29;112467;-77
2023/08/10 04:57:32;;;;;;;;;;;;;;;18.31;51.56;102094.19;4846102;28;124848;-77
2023/08/10 04:59:58;;;;;;;;;;;;;;;18.32;51.49;102090.53;4826791;29;124950;-77
2023/08/10 05:02:25;;;;;;;;;;;;;;;18.32;51.58;102087.84;4832307;29;114627;-77
2023/08/10 05:04:52;;;;;;;;;;;;;;;18.32;51.89;102095.91;4828037;29;113029;-77
2023/08/10 05:07:19;;;;;;;;;;;;;;;18.34;51.54;102096.69;4828003;29;124120;-76
2023/08/10 05:09:46;;;;;;;;;;;;;;;18.35;51.80;102101.09;4831181;29;123571;-77
2023/08/10 05:12:22;;;;;;;;;;;;;;;18.38;51.63;102098.22;4827206;29;115470;-77
2023/08/10 05:14:49;;;;;;;;;;;;;;;18.39;51.80;102094.59;4833515;29;115156;-77
2023/08/10 05:17:16;;;;;;;;;;;;;;;18.41;51.55;102091.84;4818583;29;124879;-77
2023/08/10 05:19:43;;;;;;;;;;;;;;;18.41;51.59;102090.00;4817958;29;125373;-77
2023/08/10 05:22:10;;;;;;;;;;;;;;;18.42;51.63;102097.13;4826063;29;114209;-76
2023/08/10 05:24:37;;;;;;;;;;;;;;;18.41;51.64;102090.00;4827511;29;113877;-77
2023/08/10 05:27:04;;;;;;;;;;;;;;;18.42;51.72;102096.22;4825297;29;123162;-77
2023/08/10 05:29:32;;;;;;;;;;;;;;;18.41;51.82;102092.69;4847924;29;123967;-77
2023/08/10 05:31:59;;;;;;;;;;;;;;;18.41;51.68;102095.38;4824962;29;114518;-77
2023/08/10 05:34:25;;;;;;;;;;;;;;;18.40;51.79;102085.63;4827219;29;114217;-77
2023/08/10 05:36:52;;;;;;;;;;;;;;;18.40;51.67;102085.63;4821957;29;123936;-77
2023/08/10 05:39:19;;;;;;;;;;;;;;;18.39;51.65;102086.56;4824358;29;124016;-77
2023/08/10 05:41:46;;;;;;;;;;;;;;;18.40;51.83;102096.34;4842416;29;114430;-77
2023/08/10 05:44:13;;;;;;;;;;;;;;;18.41;51.83;102099.88;4831446;29;113845;-77
2023/08/10 05:46:40;;;;;;;;;;;;;;;18.41;51.77;102098.06;4833807;29;124813;-77
2023/08/10 05:49:07;;;;;;;;;;;;;;;18.41;51.77;102092.69;4834147;29;124144;-77
2023/08/10 05:51:34;;;;;;;;;;;;;;;18.42;51.83;102088.19;4832828;29;114762;-77
2023/08/10 05:54:01;;;;;;;;;;;;;;;18.43;51.86;102089.91;4833286;29;114047;-77
2023/08/10 05:56:28;;;;;;;;;;;;;;;18.45;52.02;102094.22;4831030;29;123630;-77
2023/08/10 05:58:55;;;;;;;;;;;;;;;18.47;52.05;102092.31;4834408;29;124716;-77
2023/08/10 06:01:22;;;;;;;;;;;;;;;18.51;52.04;102092.16;4828327;29;114434;-77
2023/08/10 06:03:49;;;;;;;;;;;;;;;18.54;52.13;102092.00;4849365;28;114983;-77
2023/08/10 06:06:16;;;;;;;;;;;;;;;18.57;51.99;102097.16;4835162;29;124297;-77
2023/08/10 06:08:44;;;;;;;;;;;;;;;18.60;51.92;102096.97;4834984;29;123527;-77
2023/08/10 06:11:11;;;;;;;;;;;;;;;18.63;52.11;102091.44;4834923;29;114203;-77
2023/08/10 06:13:41;;;;;;;;;;;;;;;18.66;52.02;102092.09;4829772;29;114151;-77
2023/08/10 06:16:09;;;;;;;;;;;;;;;18.70;51.93;102098.16;4828335;29;124115;-77
2023/08/10 06:18:36;;;;;;;;;;;;;;;18.73;52.04;102103.34;4829009;29;124983;-77
2023/08/10 06:21:06;;;;;;;;;;;;;;;18.79;52.11;102102.97;4837242;29;114360;-77
2023/08/10 06:23:33;;;;;;;;;;;;;;;18.85;51.96;102101.78;4833079;29;115090;-77
2023/08/10 06:26:00;;;;;;;;;;;;;;;18.92;52.23;102102.28;4840256;29;123834;-77
2023/08/10 06:28:27;;;;;;;;;;;;;;;19.00;52.20;102116.09;4834658;29;123722;-77
2023/08/10 06:30:54;;;;;;;;;;;;;;;19.05;52.27;102108.66;4833187;29;114733;-77
2023/08/10 06:33:21;;;;;;;;;;;;;;;19.12;52.08;102110.00;4827966;29;113706;-77
2023/08/10 06:35:52;;;;;;;;;;;;;;;19.21;52.15;102104.06;4846099;28;123422;-77
2023/08/10 06:38:19;;;;;;;;;;;;;;;19.30;52.12;102104.44;4835672;29;124069;-77
2023/08/10 06:40:46;;;;;;;;;;;;;;;19.38;52.37;102104.81;4829463;29;114769;-77
2023/08/10 06:43:13;;;;;;;;;;;;;;;19.47;52.32;102104.25;4832975;29;112953;-77
2023/08/10 06:45:47;;;;;;;;;;;;;;;19.59;52.32;102098.13;4846411;29;124460;-78
2023/08/10 06:48:14;;;;;;;;;;;;;;;19.73;52.24;102104.47;4856761;29;124745;-79
2023/08/10 06:50:42;;;;;;;;;;;;;;;19.83;52.23;102094.84;4836165;29;114577;-79
2023/08/10 06:53:11;;;;;;;;;;;;;;;19.96;52.29;102100.31;4839852;29;114450;-79
2023/08/10 06:55:38;;;;;;;;;;;;;;;20.08;52.25;102093.25;4841686;28;123388;-79
2023/08/10 06:58:05;;;;;;;;;;;;;;;20.19;52.30;102093.41;4853126;29;123501;-79
2023/08/10 07:00:33;;;;;;;;;;;;;;;20.33;52.27;102098.75;4846252;29;113779;-80
2023/08/10 07:03:00;;;;;;;;;;;;;;;20.48;52.31;102090.66;4834933;29;113933;-79
2023/08/10 07:05:27;;;;;;;;;;;;;;;20.62;52.33;102087.91;4849509;29;122925;-79
2023/08/10 07:07:55;;;;;;;;;;;;;;;20.75;52.29;102087.94;4832165;29;124135;-79
2023/08/10 07:10:22;;;;;;;;;;;;;;;20.90;52.34;102088.72;4827582;29;115172;-80
2023/08/10 07:12:49;;;;;;;;;;;;;;;21.08;52.25;102090.13;4832049;29;113192;-77
2023/08/10 07:15:17;;;;;;;;;;;;;;;21.26;52.29;102087.09;4833345;29;124545;-77
2023/08/10 07:17:44;;;;;;;;;;;;;;;21.42;52.13;102076.09;4834036;29;123762;-77
2023/08/10 07:20:12;;;;;;;;;;;;;;;21.58;52.15;102083.00;4831253;29;114349;-78
2023/08/10 07:22:45;;;;;;;;;;;;;;;21.77;52.17;102087.06;4835976;29;113696;-79
2023/08/10 07:25:17;;;;;;;;;;;;;;;21.91;52.02;102084.22;4832597;29;123410;-78
2023/08/10 07:27:45;;;;;;;;;;;;;;;22.07;52.07;102088.50;4850507;29;123403;-78
2023/08/10 07:30:13;;;;;;;;;;;;;;;22.22;52.05;102087.34;4836033;29;114646;-78
2023/08/10 07:32:41;;;;;;;;;;;;;;;22.37;51.88;102089.91;4836626;28;114558;-80
2023/08/10 07:35:09;;;;;;;;;;;;;;;22.51;51.80;102092.44;4830936;29;124510;-80
2023/08/10 07:37:36;;;;;;;;;;;;;;;22.65;51.64;102089.53;4832150;29;124991;-78
2023/08/10 07:40:04;;;;;;;;;;;;;;;22.76;51.64;102087.88;4830283;29;115497;-81
2023/08/10 07:42:31;;;;;;;;;;;;;;;22.89;51.73;102091.34;4837768;29;115217;-79
2023/08/10 07:44:58;;;;;;;;;;;;;;;23.05;51.81;102091.03;4831511;29;124364;-79
2023/08/10 07:47:24;;;;;;;;;;;;;;;23.19;51.63;102092.63;4832858;29;123884;-81
2023/08/10 07:49:51;;;;;;;;;;;;;;;23.35;51.71;102093.13;4852274;29;114278;-79
2023/08/10 07:52:18;;;;;;;;;;;;;;;23.50;51.53;102091.91;4848111;29;114519;-81
2023/08/10 07:54:45;;;;;;;;;;;;;;;23.64;51.29;102089.94;4829250;29;124141;-79
2023/08/10 07:57:12;;;;;;;;;;;;;;;23.77;51.25;102092.50;4831999;29;124451;-78
2023/08/10 07:59:39;;;;;;;;;;;;;;;23.83;51.06;102087.50;4847274;29;114523;-79
2023/08/10 08:02:08;;;;;;;;;;;;;;;23.93;50.94;102098.44;4833751;29;113528;-78
2023/08/10 08:04:35;;;;;;;;;;;;;;;24.04;51.05;102090.28;4841613;28;123756;-79
2023/08/10 08:07:03;;;;;;;;;;;;;;;24.14;50.88;102095.78;4831973;29;124276;-79
2023/08/10 08:09:29;;;;;;;;;;;;;;;24.24;50.85;102091.34;4825037;29;114628;-79
2023/08/10 08:11:56;;;;;;;;;;;;;;;24.36;50.90;102100.28;4850127;29;112934;-78
2023/08/10 08:14:23;;;;;;;;;;;;;;;24.48;50.93;102098.38;4830654;29;124133;-79
2023/08/10 08:16:50;;;;;;;;;;;;;;;24.58;50.83;102099.38;4837100;29;123224;-79
2023/08/10 08:19:18;;;;;;;;;;;;;;;24.66;50.78;102096.88;4835306;29;113356;-79
2023/08/10 08:21:48;;;;;;;;;;;;;;;24.77;50.58;102095.94;4825594;29;113940;-79
2023/08/10 08:24:17;;;;;;;;;;;;;;;24.89;50.55;102099.44;4848867;28;121979;-79
2023/08/10 08:26:44;;;;;;;;;;;;;;;25.00;50.75;102093.97;4823369;29;124447;-80
2023/08/10 08:29:11;;;;;;;;;;;;;;;25.10;50.40;102095.88;4826830;29;115956;-80
2023/08/10 08:31:38;;;;;;;;;;;;;;;25.15;50.35;102090.91;4829661;29;114362;-80
2023/08/10 08:34:06;;;;;;;;;;;;;;;25.19;50.01;102087.78;4825260;29;123680;-79
2023/08/10 08:36:33;;;;;;;;;;;;;;;25.25;50.01;102097.28;4830027;29;124065;-80
2023/08/10 08:39:00;;;;;;;;;;;;;;;25.30;49.97;102095.03;4831705;29;114444;-80
2023/08/10 08:41:31;;;;;;;;;;;;;;;25.35;49.90;102098.16;4841544;28;114734;-79
2023/08/10 08:43:58;;;;;;;;;;;;;;;25.41;50.04;102092.22;4827043;29;124199;-80
2023/08/10 08:46:30;;;;;;;;;;;;;;;25.49;49.97;102093.41;4836332;29;124085;-79
2023/08/10 08:48:59;;;;;;;;;;;;;;;25.54;49.72;102093.81;4835229;29;114378;-79
2023/08/10 08:51:25;;;;;;;;;;;;;;;25.57;49.74;102090.84;4816850;29;112408;-79
2023/08/10 08:53:53;;;;;;;;;;;;;;;25.59;49.68;102094.28;4829780;29;124505;-79
2023/08/10 08:56:20;;;;;;;;;;;;;;;25.64;49.79;102081.19;4825205;29;125108;-79
2023/08/10 08:58:47;;;;;;;;;;;;;;;25.71;49.58;102092.31;4835787;29;115035;-79
2023/08/10 09:01:14;;;;;;;;;;;;;;;25.80;49.70;102092.34;4834042;29;114210;-79
2023/08/10 09:03:41;;;;;;;;;;;;;;;25.89;49.72;102089.81;4851545;28;125437;-79
2023/08/10 09:06:08;;;;;;;;;;;;;;;25.92;49.37;102085.00;4834810;29;123829;-80
2023/08/10 09:08:35;;;;;;;;;;;;;;;25.95;49.09;102086.56;4827730;29;114902;-80
2023/08/10 09:11:03;;;;;;;;;;;;;;;25.93;49.42;102088.56;4832240;29;113444;-79
2023/08/10 09:13:30;;;;;;;;;;;;;;;25.95;49.16;102084.69;4834948;29;124664;-78
2023/08/10 09:16:05;;;;;;;;;;;;;;;25.96;49.27;102091.00;4836353;29;123270;-78
2023/08/10 09:18:33;;;;;;;;;;;;;;;25.98;49.17;102078.16;4815968;29;116465;-78
2023/08/10 09:21:11;;;;;;;;;;;;;;;26.02;49.20;102074.16;4828764;29;114806;-78
2023/08/10 09:23:38;;;;;;;;;;;;;;;26.07;49.27;102076.44;4831189;29;123914;-79
2023/08/10 09:26:09;;;;;;;;;;;;;;;26.12;49.24;102069.56;4828000;29;124678;-78
2023/08/10 09:28:39;;;;;;;;;;;;;;;26.18;48.85;102069.03;4834569;29;114318;-78
2023/08/10 09:31:09;;;;;;;;;;;;;;;26.21;48.84;102074.16;4830597;29;113299;-78
2023/08/10 09:33:42;;;;;;;;;;;;;;;26.25;48.88;102079.31;4862440;29;124313;-79
2023/08/10 09:36:52;;;;;;;;;;;;;;;26.32;49.21;102075.91;4815050;29;124070;-78
2023/08/10 09:39:19;;;;;;;;;;;;;;;26.40;49.15;102083.31;4834383;29;114003;-78
2023/08/10 09:41:50;;;;;;;;;;;;;;;26.48;49.05;102079.91;4838944;29;114400;-78
2023/08/10 09:44:16;;;;;;;;;;;;;;;26.57;49.04;102085.31;4843038;29;124411;-78
2023/08/10 09:46:43;;;;;;;;;;;;;;;26.66;48.89;102077.34;4840166;29;124291;-78
2023/08/10 09:49:16;;;;;;;;;;;;;;;26.71;48.67;102075.03;4855544;29;114365;-78
2023/08/10 09:51:43;;;;;;;;;;;;;;;26.69;48.34;102066.16;4854205;29;113765;-78
2023/08/10 09:54:10;;;;;;;;;;;;;;;26.68;48.47;102064.47;4841026;29;125324;-78
2023/08/10 09:56:37;;;;;;;;;;;;;;;26.68;48.65;102059.88;4836268;29;123901;-78
2023/08/10 09:59:05;;;;;;;;;;;;;;;26.71;48.53;102061.44;4837198;29;114617;-78
2023/08/10 10:01:32;;;;;;;;;;;;;;;26.77;48.34;102069.03;4841391;29;115023;-78
2023/08/10 10:04:00;;;;;;;;;;;;;;;26.83;48.71;102073.88;4837219;29;124193;-78
2023/08/10 10:06:27;;;;;;;;;;;;;;;26.86;48.55;102084.47;4825480;29;123039;-78
2023/08/10 10:08:57;;;;;;;;;;;;;;;26.87;48.53;102080.75;4829642;29;115454;-78
2023/08/10 10:11:24;;;;;;;;;;;;;;;26.84;48.14;102070.16;4828451;29;114654;-78
2023/08/10 10:13:52;;;;;;;;;;;;;;;26.81;47.94;102059.59;4839539;29;124024;-78
2023/08/10 10:16:19;;;;;;;;;;;;;;;26.84;48.25;102070.16;4837287;29;122988;-79
2023/08/10 10:18:46;;;;;;;;;;;;;;;26.90;48.25;102064.16;4851216;29;114275;-78
2023/08/10 10:21:13;;;;;;;;;;;;;;;26.99;48.37;102063.28;4834486;29;113211;-78
2023/08/10 10:23:41;;;;;;;;;;;;;;;27.09;48.55;102067.81;4829518;29;124829;-79
2023/08/10 10:26:08;;;;;;;;;;;;;;;27.10;48.38;102066.81;4841560;29;122629;-78
2023/08/10 10:28:35;;;;;;;;;;;;;;;27.09;48.24;102062.38;4834438;29;115474;-78
2023/08/10 10:31:05;;;;;;;;;;;;;;;27.09;48.08;102062.38;4840184;29;115532;-78
2023/08/10 10:33:32;;;;;;;;;;;;;;;27.05;47.95;102071.81;4812322;29;125415;-78
2023/08/10 10:36:07;;;;;;;;;;;;;;;27.02;47.92;102077.56;4828117;29;124476;-78
2023/08/10 10:38:47;;;;;;;;;;;;;;;27.02;48.19;102072.13;4851208;29;115012;-78
2023/08/10 10:41:15;;;;;;;;;;;;;;;27.04;48.15;102081.00;4855952;29;113904;-78
2023/08/10 10:43:44;;;;;;;;;;;;;;;27.08;47.96;102083.25;4837201;29;125332;-79
2023/08/10 10:46:29;;;;;;;;;;;;;;;27.10;48.04;102085.84;4835395;29;123948;-79
2023/08/10 10:48:57;;;;;;;;;;;;;;;27.10;47.79;102083.13;4826685;29;115189;-78
2023/08/10 10:51:24;;;;;;;;;;;;;;;27.07;48.00;102080.69;4824059;29;114430;-78
2023/08/10 10:53:53;;;;;;;;;;;;;;;27.05;47.67;102075.41;4830641;29;123537;-78
2023/08/10 10:56:20;;;;;;;;;;;;;;;27.04;47.60;102075.56;4832623;28;123958;-79
2023/08/10 10:58:50;;;;;;;;;;;;;;;27.02;47.85;102083.00;4843677;29;113772;-78
2023/08/10 11:01:23;;;;;;;;;;;;;;;26.97;47.90;102076.16;4849729;28;115102;-78
2023/08/10 11:03:53;;;;;;;;;;;;;;;26.95;47.88;102069.97;4826297;29;123936;-78
2023/08/10 11:06:23;;;;;;;;;;;;;;;26.93;47.97;102069.28;4849878;28;122937;-79
2023/08/10 11:08:51;;;;;;;;;;;;;;;26.95;48.09;102067.25;4824743;29;114842;-78
2023/08/10 11:11:18;;;;;;;;;;;;;;;27.00;48.13;102072.28;4834125;29;113563;-79
2023/08/10 11:13:45;;;;;;;;;;;;;;;27.04;47.80;102064.69;4827218;29;123677;-78
2023/08/10 11:16:12;;;;;;;;;;;;;;;27.07;47.89;102069.81;4827509;29;125741;-78
2023/08/10 11:18:42;;;;;;;;;;;;;;;27.09;47.84;102070.53;4833044;29;114840;-79
2023/08/10 11:21:09;;;;;;;;;;;;;;;27.13;48.01;102066.53;4823390;29;113806;-79
2023/08/10 11:23:38;;;;;;;;;;;;;;;27.16;47.83;102074.38;4843892;29;123833;-78
2023/08/10 11:26:05;;;;;;;;;;;;;;;27.19;47.66;102079.53;4831051;29;123141;-79
2023/08/10 11:28:33;;;;;;;;;;;;;;;27.23;47.81;102067.31;4829479;29;116049;-79
2023/08/10 11:31:00;;;;;;;;;;;;;;;27.26;47.64;102067.06;4839803;29;114147;-78
2023/08/10 11:33:29;;;;;;;;;;;;;;;27.28;47.80;102061.50;4825120;29;125548;-79
2023/08/10 11:35:58;;;;;;;;;;;;;;;27.31;47.75;102062.06;4826965;29;124262;-79
2023/08/10 11:38:25;;;;;;;;;;;;;;;27.35;47.80;102055.31;4820465;29;114354;-78
2023/08/10 11:40:57;;;;;;;;;;;;;;;27.42;47.61;102060.13;4823764;29;114382;-79
2023/08/10 11:43:25;;;;;;;;;;;;;;;27.45;47.42;102057.13;4850174;29;124668;-79
2023/08/10 11:45:53;;;;;;;;;;;;;;;27.48;47.55;102060.41;4825630;29;124791;-78
2023/08/10 11:48:22;;;;;;;;;;;;;;;27.52;47.41;102059.09;4830066;29;115162;-79
2023/08/10 11:50:58;;;;;;;;;;;;;;;27.58;47.59;102047.59;4836189;29;113972;-79
2023/08/10 11:53:32;;;;;;;;;;;;;;;27.65;47.67;102047.84;4824938;29;123677;-79
2023/08/10 11:55:59;;;;;;;;;;;;;;;27.72;47.62;102043.47;4828069;29;124669;-78
2023/08/10 11:58:31;;;;;;;;;;;;;;;27.76;47.34;102042.19;4833702;29;115069;-79
2023/08/10 12:01:01;;;;;;;;;;;;;;;27.85;47.39;102047.72;4829674;29;113492;-78
2023/08/10 12:03:29;;;;;;;;;;;;;;;27.90;47.31;102051.72;4829669;29;125229;-79
2023/08/10 12:06:06;;;;;;;;;;;;;;;27.91;47.09;102041.69;4823340;29;124557;-79
2023/08/10 12:08:35;;;;;;;;;;;;;;;27.88;46.99;102036.53;4827737;29;114854;-78
2023/08/10 12:11:04;;;;;;;;;;;;;;;27.87;46.86;102030.19;4848445;29;96874;-78
2023/08/10 12:13:43;;;;;;;;;;;;;;;27.86;46.90;102025.78;4818776;29;123691;-79
2023/08/10 12:16:10;;;;;;;;;;;;;;;27.85;46.96;102025.94;4828401;29;124012;-78
2023/08/10 12:18:38;;;;;;;;;;;;;;;27.85;47.07;102028.66;4828891;29;114857;-79
2023/08/10 12:21:05;;;;;;;;;;;;;;;27.87;47.01;102042.97;4822183;29;114024;-79
2023/08/10 12:23:32;;;;;;;;;;;;;;;27.89;46.86;102038.25;4824426;29;123901;-78
2023/08/10 12:25:59;;;;;;;;;;;;;;;27.95;46.90;102032.19;4847783;29;124109;-79
2023/08/10 12:28:26;;;;;;;;;;;;;;;28.00;46.96;102029.03;4833907;29;115529;-79
2023/08/10 12:30:53;;;;;;;;;;;;;;;28.02;47.05;102027.84;4828280;29;112224;-78
2023/08/10 12:33:20;;;;;;;;;;;;;;;28.04;46.91;102031.25;4823844;29;124201;-78